Time;durP1;ratioP1;P1;durP2;ratioP2;P2;SDS_P1;SDS_P2;PMS_P1;PMS_P2;Temp;Humidity;BMP_temperature;BMP_pressure;BME280_temperature;BME280_humidity;BME280_pressure;Samples;Min_cycle;Max_cycle;Signal;HPM_P1;HPM_P2
2022/04/08 00:00:01;;;;;;;;;;;;;;;;;;5094427;28;20384;-68
2022/04/08 00:02:27;;;;;;;;;;;;;;;;;;5093888;28;19930;-68
2022/04/08 00:04:53;;;;;;;;;;;;;;;;;;5094320;28;20295;-68
2022/04/08 00:07:19;;;;;;;;;;;;;;;;;;5094492;28;20340;-69
2022/04/08 00:09:45;;;;;;;;;;;;;;;;;;5076194;28;19979;-68
2022/04/08 00:12:12;;;;;;;;;;;;;;;;;;5076077;28;19912;-69
2022/04/08 00:14:38;;;;;;;;;;;;;;;;;;5094072;28;20030;-69
2022/04/08 00:17:04;;;;;;;;;;;;;;;;;;5093944;28;20080;-69
2022/04/08 00:19:30;;;;;;;;;;;;;;;;;;5094146;28;19919;-69
2022/04/08 00:21:56;;;;;;;;;;;;;;;;;;5093676;28;19916;-68
2022/04/08 00:24:22;;;;;;;;;;;;;;;;;;5094129;28;19908;-68
2022/04/08 00:26:48;;;;;;;;;;;;;;;;;;5094250;28;19915;-68
2022/04/08 00:29:14;;;;;;;;;;;;;;;;;;5075507;28;20273;-68
2022/04/08 00:31:40;;;;;;;;;;;;;;;;;;5094321;28;19919;-69
2022/04/08 00:34:06;;;;;;;;;;;;;;;;;;5094305;28;19912;-69
2022/04/08 00:36:32;;;;;;;;;;;;;;;;;;5093631;28;19962;-69
2022/04/08 00:38:58;;;;;;;;;;;;;;;;;;5093904;28;19908;-68
2022/04/08 00:41:24;;;;;;;;;;;;;;;;;;5093669;28;19920;-68
2022/04/08 00:43:50;;;;;;;;;;;;;;;;;;5093452;28;19913;-68
2022/04/08 00:46:16;;;;;;;;;;;;;;;;;;5094048;28;20379;-68
2022/04/08 00:48:43;;;;;;;;;;;;;;;;;;5093938;28;19908;-68
2022/04/08 00:51:09;;;;;;;;;;;;;;;;;;5093405;28;19986;-68
2022/04/08 00:53:35;;;;;;;;;;;;;;;;;;5093831;28;19908;-68
2022/04/08 00:56:01;;;;;;;;;;;;;;;;;;5093918;28;19919;-68
2022/04/08 00:58:27;;;;;;;;;;;;;;;;;;5093420;28;19908;-68
2022/04/08 01:00:53;;;;;;;;;;;;;;;;;;5093731;28;19916;-69
2022/04/08 01:03:19;;;;;;;;;;;;;;;;;;5093747;28;20291;-68
2022/04/08 01:05:45;;;;;;;;;;;;;;;;;;5075079;28;19995;-69
2022/04/08 01:08:11;;;;;;;;;;;;;;;;;;5093731;28;19958;-67
2022/04/08 01:10:37;;;;;;;;;;;;;;;;;;5093523;28;20412;-68
2022/04/08 01:13:03;;;;;;;;;;;;;;;;;;5093576;28;19991;-68
2022/04/08 01:15:29;;;;;;;;;;;;;;;;;;5093631;28;19908;-68
2022/04/08 01:17:55;;;;;;;;;;;;;;;;;;5075069;28;20666;-68
2022/04/08 01:20:22;;;;;;;;;;;;;;;;;;5093434;28;19908;-67
2022/04/08 01:22:48;;;;;;;;;;;;;;;;;;5093811;28;19948;-68
2022/04/08 01:25:14;;;;;;;;;;;;;;;;;;5074948;28;19947;-68
2022/04/08 01:27:40;;;;;;;;;;;;;;;;;;5094412;28;19908;-68
2022/04/08 01:30:06;;;;;;;;;;;;;;;;;;5097234;28;19908;-68
2022/04/08 01:32:32;;;;;;;;;;;;;;;;;;5097169;28;20014;-68
2022/04/08 01:34:58;;;;;;;;;;;;;;;;;;5097227;28;19992;-68
2022/04/08 01:37:24;;;;;;;;;;;;;;;;;;5097136;28;19999;-68
2022/04/08 01:39:50;;;;;;;;;;;;;;;;;;5078590;28;20005;-68
2022/04/08 01:42:22;;;;;;;;;;;;;;;;;;5096822;28;19920;-68
2022/04/08 01:44:48;;;;;;;;;;;;;;;;;;5097079;28;19952;-68
2022/04/08 01:47:14;;;;;;;;;;;;;;;;;;5078307;28;19909;-68
2022/04/08 01:49:40;;;;;;;;;;;;;;;;;;5096925;28;19908;-67
2022/04/08 01:52:06;;;;;;;;;;;;;;;;;;5096861;28;20284;-68
2022/04/08 01:54:32;;;;;;;;;;;;;;;;;;5078196;28;19914;-68
2022/04/08 01:56:57;;;;;;;;;;;;;;;;;;5078618;28;19908;-68
2022/04/08 01:59:23;;;;;;;;;;;;;;;;;;5097056;28;19914;-68
2022/04/08 02:01:49;;;;;;;;;;;;;;;;;;5096333;28;19920;-68
2022/04/08 02:04:16;;;;;;;;;;;;;;;;;;5078552;28;19908;-68
2022/04/08 02:06:42;;;;;;;;;;;;;;;;;;5096720;28;19915;-69
2022/04/08 02:09:08;;;;;;;;;;;;;;;;;;5096161;28;20377;-68
2022/04/08 02:11:35;;;;;;;;;;;;;;;;;;5096935;28;19916;-68
2022/04/08 02:14:01;;;;;;;;;;;;;;;;;;5096293;28;20005;-68
2022/04/08 02:16:27;;;;;;;;;;;;;;;;;;5097279;28;19909;-68
2022/04/08 02:18:53;;;;;;;;;;;;;;;;;;5096335;28;20394;-68
2022/04/08 02:21:22;;;;;;;;;;;;;;;;;;5077715;28;20290;-68
2022/04/08 02:23:48;;;;;;;;;;;;;;;;;;5078119;28;19954;-68
2022/04/08 02:26:16;;;;;;;;;;;;;;;;;;5078034;28;19908;-68
2022/04/08 02:28:42;;;;;;;;;;;;;;;;;;5077609;28;19908;-68
2022/04/08 02:31:08;;;;;;;;;;;;;;;;;;5096147;28;19908;-68
2022/04/08 02:33:34;;;;;;;;;;;;;;;;;;5096107;28;19909;-68
2022/04/08 02:36:00;;;;;;;;;;;;;;;;;;5095935;28;19909;-68
2022/04/08 02:38:26;;;;;;;;;;;;;;;;;;5077752;28;20265;-68
2022/04/08 02:40:52;;;;;;;;;;;;;;;;;;5095699;28;19927;-68
2022/04/08 02:43:18;;;;;;;;;;;;;;;;;;5095550;28;19909;-68
2022/04/08 02:45:44;;;;;;;;;;;;;;;;;;5095927;28;19939;-68
2022/04/08 02:48:13;;;;;;;;;;;;;;;;;;5077636;28;19914;-68
2022/04/08 02:50:39;;;;;;;;;;;;;;;;;;5095452;28;20390;-68
2022/04/08 02:53:05;;;;;;;;;;;;;;;;;;5096161;28;19908;-68
2022/04/08 02:55:31;;;;;;;;;;;;;;;;;;5095671;28;19912;-68
2022/04/08 02:57:57;;;;;;;;;;;;;;;;;;5076948;28;19958;-68
2022/04/08 03:00:23;;;;;;;;;;;;;;;;;;5077290;28;20027;-68
2022/04/08 03:02:49;;;;;;;;;;;;;;;;;;5095832;28;19960;-69
2022/04/08 03:05:15;;;;;;;;;;;;;;;;;;5095104;28;20402;-68
2022/04/08 03:07:41;;;;;;;;;;;;;;;;;;5077272;28;19909;-68
2022/04/08 03:10:07;;;;;;;;;;;;;;;;;;5094943;28;19912;-68
2022/04/08 03:12:33;;;;;;;;;;;;;;;;;;5095334;28;19912;-68
2022/04/08 03:14:59;;;;;;;;;;;;;;;;;;5095448;28;19908;-68
2022/04/08 03:17:25;;;;;;;;;;;;;;;;;;5094709;28;19931;-68
2022/04/08 03:19:51;;;;;;;;;;;;;;;;;;5095202;28;19996;-69
2022/04/08 03:22:20;;;;;;;;;;;;;;;;;;5076903;28;20278;-68
2022/04/08 03:24:46;;;;;;;;;;;;;;;;;;5094680;28;19994;-68
2022/04/08 03:27:12;;;;;;;;;;;;;;;;;;5094994;28;19908;-68
2022/04/08 03:29:38;;;;;;;;;;;;;;;;;;5095026;28;19931;-68
2022/04/08 03:32:05;;;;;;;;;;;;;;;;;;5094674;28;19908;-68
2022/04/08 03:34:31;;;;;;;;;;;;;;;;;;5094880;28;20288;-68
2022/04/08 03:36:57;;;;;;;;;;;;;;;;;;5076656;28;19999;-68
2022/04/08 03:39:23;;;;;;;;;;;;;;;;;;5094514;28;19908;-69
2022/04/08 03:41:49;;;;;;;;;;;;;;;;;;5094496;28;19920;-68
2022/04/08 03:44:15;;;;;;;;;;;;;;;;;;5095223;28;19908;-68
2022/04/08 03:46:45;;;;;;;;;;;;;;;;;;5094547;28;19934;-68
2022/04/08 03:49:14;;;;;;;;;;;;;;;;;;5094609;28;19908;-68
2022/04/08 03:51:40;;;;;;;;;;;;;;;;;;5075879;28;20417;-69
2022/04/08 03:54:06;;;;;;;;;;;;;;;;;;5094186;28;19909;-69
2022/04/08 03:56:32;;;;;;;;;;;;;;;;;;5094956;28;19908;-68
2022/04/08 03:58:58;;;;;;;;;;;;;;;;;;5094670;28;19915;-69
2022/04/08 04:01:24;;;;;;;;;;;;;;;;;;5075794;28;19939;-68
2022/04/08 04:03:50;;;;;;;;;;;;;;;;;;5094342;28;20363;-69
2022/04/08 04:06:16;;;;;;;;;;;;;;;;;;5094976;28;19908;-69
2022/04/08 04:08:42;;;;;;;;;;;;;;;;;;5096707;28;19961;-70
2022/04/08 04:11:09;;;;;;;;;;;;;;;;;;5094365;28;19998;-70
2022/04/08 04:13:35;;;;;;;;;;;;;;;;;;5093828;28;19962;-69
2022/04/08 04:16:01;;;;;;;;;;;;;;;;;;5076148;28;20330;-73
2022/04/08 04:18:27;;;;;;;;;;;;;;;;;;5094279;28;19915;-71
2022/04/08 04:20:53;;;;;;;;;;;;;;;;;;5093623;28;19912;-72
2022/04/08 04:23:19;;;;;;;;;;;;;;;;;;5094112;28;19912;-72
2022/04/08 04:25:45;;;;;;;;;;;;;;;;;;5094379;28;20257;-72
2022/04/08 04:28:11;;;;;;;;;;;;;;;;;;5093744;28;20485;-72
2022/04/08 04:30:37;;;;;;;;;;;;;;;;;;5075898;28;20025;-72
2022/04/08 04:33:07;;;;;;;;;;;;;;;;;;5075925;28;20042;-72
2022/04/08 04:35:33;;;;;;;;;;;;;;;;;;5075438;28;19916;-72
2022/04/08 04:37:59;;;;;;;;;;;;;;;;;;5094478;28;19908;-72
2022/04/08 04:40:25;;;;;;;;;;;;;;;;;;5093633;28;20384;-72
2022/04/08 04:42:51;;;;;;;;;;;;;;;;;;5093556;28;19916;-72
2022/04/08 04:45:18;;;;;;;;;;;;;;;;;;5075784;28;19908;-72
2022/04/08 04:47:44;;;;;;;;;;;;;;;;;;5093802;28;20356;-73
2022/04/08 04:50:10;;;;;;;;;;;;;;;;;;5075299;28;20003;-72
2022/04/08 04:52:36;;;;;;;;;;;;;;;;;;5094336;28;19922;-72
2022/04/08 04:55:02;;;;;;;;;;;;;;;;;;5093808;28;19908;-72
2022/04/08 04:57:28;;;;;;;;;;;;;;;;;;5093392;28;19908;-72
2022/04/08 04:59:54;;;;;;;;;;;;;;;;;;5093737;28;20292;-72
2022/04/08 05:02:20;;;;;;;;;;;;;;;;;;5094018;28;19920;-72
2022/04/08 05:04:46;;;;;;;;;;;;;;;;;;5097430;28;19919;-72
2022/04/08 05:07:12;;;;;;;;;;;;;;;;;;5079415;28;19908;-72
2022/04/08 05:09:38;;;;;;;;;;;;;;;;;;5077231;28;19985;-72
2022/04/08 05:12:04;;;;;;;;;;;;;;;;;;5095902;28;20368;-71
2022/04/08 05:14:30;;;;;;;;;;;;;;;;;;5092276;28;19923;-71
2022/04/08 05:16:58;;;;;;;;;;;;;;;;;;5089880;28;20364;-71
2022/04/08 05:19:24;;;;;;;;;;;;;;;;;;5096763;28;20249;-71
2022/04/08 05:21:52;;;;;;;;;;;;;;;;;;5096557;28;19942;-71
2022/04/08 05:24:18;;;;;;;;;;;;;;;;;;5093673;28;20011;-71
2022/04/08 05:26:44;;;;;;;;;;;;;;;;;;5090070;28;20015;-71
2022/04/08 05:29:10;;;;;;;;;;;;;;;;;;5095558;28;19970;-71
2022/04/08 05:31:36;;;;;;;;;;;;;;;;;;5092972;28;20284;-72
2022/04/08 05:34:02;;;;;;;;;;;;;;;;;;5092977;28;19966;-72
2022/04/08 05:36:28;;;;;;;;;;;;;;;;;;5093456;28;20385;-71
2022/04/08 05:38:54;;;;;;;;;;;;;;;;;;5092366;28;19916;-71
2022/04/08 05:41:20;;;;;;;;;;;;;;;;;;5088142;28;19920;-72
2022/04/08 05:43:46;;;;;;;;;;;;;;;;;;5073507;28;20701;-73
2022/04/08 05:46:12;;;;;;;;;;;;;;;;;;5093043;28;19908;-73
2022/04/08 05:48:38;;;;;;;;;;;;;;;;;;5094574;28;19908;-72
2022/04/08 05:51:04;;;;;;;;;;;;;;;;;;5094027;28;19908;-73
2022/04/08 05:53:30;;;;;;;;;;;;;;;;;;5093582;28;19908;-73
2022/04/08 05:55:56;;;;;;;;;;;;;;;;;;5087369;28;20453;-73
2022/04/08 05:58:22;;;;;;;;;;;;;;;;;;5095207;28;19991;-69
2022/04/08 06:00:48;;;;;;;;;;;;;;;;;;5075635;28;20020;-69
2022/04/08 06:03:14;;;;;;;;;;;;;;;;;;5076470;28;20038;-68
2022/04/08 06:05:40;;;;;;;;;;;;;;;;;;5095182;28;20302;-69
2022/04/08 06:08:06;;;;;;;;;;;;;;;;;;5094506;28;19954;-68
2022/04/08 06:10:32;;;;;;;;;;;;;;;;;;5085960;28;20003;-69
2022/04/08 06:12:58;;;;;;;;;;;;;;;;;;5080244;28;20009;-71
2022/04/08 06:15:27;;;;;;;;;;;;;;;;;;5080021;28;19991;-72
2022/04/08 06:17:56;;;;;;;;;;;;;;;;;;5089251;28;20372;-70
2022/04/08 06:20:22;;;;;;;;;;;;;;;;;;5094833;28;19912;-70
2022/04/08 06:22:48;;;;;;;;;;;;;;;;;;5095283;28;19930;-72
2022/04/08 06:25:15;;;;;;;;;;;;;;;;;;5072932;28;19981;-73
2022/04/08 06:27:41;;;;;;;;;;;;;;;;;;5094170;28;19913;-73
2022/04/08 06:30:07;;;;;;;;;;;;;;;;;;5093746;28;19912;-72
2022/04/08 06:32:33;;;;;;;;;;;;;;;;;;5075046;28;19919;-72
2022/04/08 06:34:59;;;;;;;;;;;;;;;;;;5074905;28;19912;-74
2022/04/08 06:37:26;;;;;;;;;;;;;;;;;;5093389;28;19991;-73
2022/04/08 06:39:52;;;;;;;;;;;;;;;;;;5093694;28;20367;-70
2022/04/08 06:42:18;;;;;;;;;;;;;;;;;;5092083;28;19970;-70
2022/04/08 06:44:44;;;;;;;;;;;;;;;;;;5074316;28;19915;-75
2022/04/08 06:47:10;;;;;;;;;;;;;;;;;;5094496;28;19908;-75
2022/04/08 06:49:38;;;;;;;;;;;;;;;;;;5087519;28;19927;-76
2022/04/08 06:52:04;;;;;;;;;;;;;;;;;;5074810;28;19919;-76
2022/04/08 06:54:31;;;;;;;;;;;;;;;;;;5082813;28;19916;-75
2022/04/08 06:56:57;;;;;;;;;;;;;;;;;;5074080;28;20003;-74
2022/04/08 06:59:23;;;;;;;;;;;;;;;;;;5074970;28;19966;-72
2022/04/08 07:01:49;;;;;;;;;;;;;;;;;;5094201;28;19916;-73
2022/04/08 07:04:15;;;;;;;;;;;;;;;;;;5094278;28;19919;-72
2022/04/08 07:06:41;;;;;;;;;;;;;;;;;;5094001;28;20429;-72
2022/04/08 07:09:07;;;;;;;;;;;;;;;;;;5075214;28;19931;-71
2022/04/08 07:11:34;;;;;;;;;;;;;;;;;;5094142;28;20376;-71
2022/04/08 07:14:01;;;;;;;;;;;;;;;;;;5094396;28;19908;-72
2022/04/08 07:18:31;;;;;;;;;;;;;;;;;;5053555;28;19920;-70
2022/04/08 07:22:33;;;;;;;;;;;;;;;;;;5088224;27;19919;-72
2022/04/08 07:24:59;;;;;;;;;;;;;;;;;;5087050;28;19919;-72
2022/04/08 07:27:25;;;;;;;;;;;;;;;;;;5087207;28;19909;-72
2022/04/08 07:29:51;;;;;;;;;;;;;;;;;;5085466;28;20432;-73
2022/04/08 07:33:36;;;;;;;;;;;;;;;;;;5107612;27;19922;-71
2022/04/08 07:36:03;;;;;;;;;;;;;;;;;;5107605;28;20313;-72
2022/04/08 07:38:29;;;;;;;;;;;;;;;;;;5107471;28;19943;-73
2022/04/08 07:40:57;;;;;;;;;;;;;;;;;;5108458;28;19974;-70
2022/04/08 07:43:32;;;;;;;;;;;;;;;;;;5088079;27;19916;-72
2022/04/08 07:45:58;;;;;;;;;;;;;;;;;;5088038;28;19966;-72
2022/04/08 07:51:36;;;;;;;;;;;;;;;;;;5087781;27;19921;-73
2022/04/08 07:55:36;;;;;;;;;;;;;;;;;;5172276;27;20029;-74
2022/04/08 08:01:56;;;;;;;;;;;;;;;;;;5090114;27;20373;-74
2022/04/08 08:06:50;;;;;;;;;;;;;;;;;;5088062;28;20384;-71
2022/04/08 08:13:14;;;;;;;;;;;;;;;;;;5088525;27;19917;-76
2022/04/08 08:15:41;;;;;;;;;;;;;;;;;;5088422;28;19940;-74
2022/04/08 08:18:08;;;;;;;;;;;;;;;;;;5087348;28;19908;-75
2022/04/08 08:21:27;;;;;;;;;;;;;;;;;;5080802;27;20682;-72
2022/04/08 08:26:19;;;;;;;;;;;;;;;;;;5141539;27;20363;-72
2022/04/08 08:28:45;;;;;;;;;;;;;;;;;;5136237;27;20371;-75
2022/04/08 08:31:11;;;;;;;;;;;;;;;;;;5124986;28;20580;-73
2022/04/08 08:35:13;;;;;;;;;;;;;;;;;;5126571;27;19916;-72
2022/04/08 08:37:39;;;;;;;;;;;;;;;;;;5091790;28;19922;-73
2022/04/08 08:41:43;;;;;;;;;;;;;;;;;;5084860;27;19931;-76
2022/04/08 08:48:46;;;;;;;;;;;;;;;;;;5147844;27;19911;-73
2022/04/08 08:51:12;;;;;;;;;;;;;;;;;;5115560;28;19915;-74
2022/04/08 08:58:16;;;;;;;;;;;;;;;;;;5088166;28;19927;-74
2022/04/08 09:00:42;;;;;;;;;;;;;;;;;;5082335;28;20418;-74
2022/04/08 09:05:21;;;;;;;;;;;;;;;;;;5087832;27;19916;-75
2022/04/08 09:08:05;;;;;;;;;;;;;;;;;;5072455;27;19923;-74
2022/04/08 09:10:31;;;;;;;;;;;;;;;;;;5079052;28;20008;-76
2022/04/08 09:12:57;;;;;;;;;;;;;;;;;;5090538;28;19948;-74
2022/04/08 09:17:07;;;;;;;;;;;;;;;;;;5089921;28;20279;-74
2022/04/08 09:19:34;;;;;;;;;;;;;;;;;;5089345;28;20411;-75
2022/04/08 09:22:00;;;;;;;;;;;;;;;;;;5090818;28;19913;-74
2022/04/08 09:24:27;;;;;;;;;;;;;;;;;;5088442;28;20122;-74
2022/04/08 09:26:53;;;;;;;;;;;;;;;;;;5089560;28;19952;-74
2022/04/08 09:30:35;;;;;;;;;;;;;;;;;;5089355;27;19921;-76
2022/04/08 09:33:03;;;;;;;;;;;;;;;;;;5089214;28;20475;-76
2022/04/08 09:35:29;;;;;;;;;;;;;;;;;;5090213;28;20276;-77
2022/04/08 09:37:55;;;;;;;;;;;;;;;;;;5086603;28;19923;-77
2022/04/08 09:40:21;;;;;;;;;;;;;;;;;;5089042;28;19947;-75
2022/04/08 09:43:45;;;;;;;;;;;;;;;;;;5089106;27;19930;-72
2022/04/08 09:50:37;;;;;;;;;;;;;;;;;;5089364;27;19926;-76
2022/04/08 09:56:12;;;;;;;;;;;;;;;;;;5088142;27;19912;-79
2022/04/08 09:59:28;;;;;;;;;;;;;;;;;;5089116;27;19916;-72
2022/04/08 10:01:54;;;;;;;;;;;;;;;;;;5090048;28;20011;-74
2022/04/08 10:04:20;;;;;;;;;;;;;;;;;;5081767;28;19940;-74
2022/04/08 10:06:47;;;;;;;;;;;;;;;;;;5083687;28;20368;-74
2022/04/08 10:09:13;;;;;;;;;;;;;;;;;;5068256;28;20405;-75
2022/04/08 10:11:59;;;;;;;;;;;;;;;;;;5089371;27;20384;-73
2022/04/08 10:14:25;;;;;;;;;;;;;;;;;;5089705;28;19940;-75
2022/04/08 10:16:52;;;;;;;;;;;;;;;;;;5085320;28;19943;-73
2022/04/08 10:23:42;;;;;;;;;;;;;;;;;;5086882;27;19920;-75
2022/04/08 10:26:08;;;;;;;;;;;;;;;;;;5084590;28;19999;-74
2022/04/08 10:28:35;;;;;;;;;;;;;;;;;;5085873;28;19974;-74
2022/04/08 10:31:58;;;;;;;;;;;;;;;;;;5086948;27;19922;-74
2022/04/08 10:35:19;;;;;;;;;;;;;;;;;;5086513;28;20392;-75
2022/04/08 10:37:45;;;;;;;;;;;;;;;;;;5087003;28;19912;-74
2022/04/08 10:40:11;;;;;;;;;;;;;;;;;;5086835;28;19936;-76
2022/04/08 10:42:37;;;;;;;;;;;;;;;;;;5086825;28;20279;-77
2022/04/08 10:46:12;;;;;;;;;;;;;;;;;;5087083;27;19924;-71
2022/04/08 10:48:38;;;;;;;;;;;;;;;;;;5063118;28;19913;-71
2022/04/08 10:51:04;;;;;;;;;;;;;;;;;;5102512;28;20360;-72
2022/04/08 10:53:31;;;;;;;;;;;;;;;;;;5070214;28;19913;-72
2022/04/08 10:55:57;;;;;;;;;;;;;;;;;;5069695;28;19959;-72
2022/04/08 10:58:23;;;;;;;;;;;;;;;;;;5072268;28;19916;-73
2022/04/08 11:02:32;;;;;;;;;;;;;;;;;;5093030;27;2269561;-73
2022/04/08 11:04:58;;;;;;;;;;;;;;;;;;5172588;27;19915;-71
2022/04/08 11:07:26;;;;;;;;;;;;;;;;;;5170643;27;19918;-71
2022/04/08 11:09:52;;;;;;;;;;;;;;;;;;5167298;27;19936;-72
2022/04/08 11:14:38;;;;;;;;;;;;;;;;;;5173275;27;19911;-73
2022/04/08 11:17:05;;;;;;;;;;;;;;;;;;5170972;27;19972;-72
2022/04/08 11:20:32;;;;;;;;;;;;;;;;;;5088611;27;20504;-74
2022/04/08 11:22:58;;;;;;;;;;;;;;;;;;5088251;28;20411;-73
2022/04/08 11:25:24;;;;;;;;;;;;;;;;;;5089466;28;19943;-73
2022/04/08 11:27:50;;;;;;;;;;;;;;;;;;5089858;28;19958;-72
2022/04/08 11:30:16;;;;;;;;;;;;;;;;;;5088437;28;19994;-73
2022/04/08 11:32:42;;;;;;;;;;;;;;;;;;5088141;28;20585;-72
2022/04/08 11:35:08;;;;;;;;;;;;;;;;;;5088928;28;19950;-72
2022/04/08 11:37:34;;;;;;;;;;;;;;;;;;5088143;28;19930;-70
2022/04/08 11:40:00;;;;;;;;;;;;;;;;;;5085024;28;19917;-71
2022/04/08 11:42:26;;;;;;;;;;;;;;;;;;5088400;28;20332;-70
2022/04/08 11:44:52;;;;;;;;;;;;;;;;;;5088948;28;19952;-70
2022/04/08 11:47:19;;;;;;;;;;;;;;;;;;5089410;28;19942;-70
2022/04/08 11:49:45;;;;;;;;;;;;;;;;;;5088244;28;19909;-70
2022/04/08 11:52:11;;;;;;;;;;;;;;;;;;5087212;28;19966;-70
2022/04/08 11:54:37;;;;;;;;;;;;;;;;;;5087338;28;20315;-70
2022/04/08 11:57:04;;;;;;;;;;;;;;;;;;5089113;28;19912;-72
2022/04/08 11:59:30;;;;;;;;;;;;;;;;;;5089526;28;19962;-70
2022/04/08 12:01:56;;;;;;;;;;;;;;;;;;5088661;28;19994;-70
2022/04/08 12:04:22;;;;;;;;;;;;;;;;;;5087914;28;19957;-69
2022/04/08 12:06:51;;;;;;;;;;;;;;;;;;5089195;28;19908;-70
2022/04/08 12:09:17;;;;;;;;;;;;;;;;;;5088127;28;20338;-70
2022/04/08 12:11:43;;;;;;;;;;;;;;;;;;5089394;28;19962;-71
2022/04/08 12:14:09;;;;;;;;;;;;;;;;;;5090185;28;19912;-71
2022/04/08 12:16:35;;;;;;;;;;;;;;;;;;5089948;28;19987;-72
2022/04/08 12:19:04;;;;;;;;;;;;;;;;;;5086895;28;20009;-71
2022/04/08 12:21:30;;;;;;;;;;;;;;;;;;5089905;28;20372;-70
2022/04/08 12:23:56;;;;;;;;;;;;;;;;;;5087121;28;20284;-72
2022/04/08 12:26:22;;;;;;;;;;;;;;;;;;5087328;28;20010;-71
2022/04/08 12:28:48;;;;;;;;;;;;;;;;;;5088075;28;20002;-69
2022/04/08 12:31:14;;;;;;;;;;;;;;;;;;5076947;28;19931;-69
2022/04/08 12:33:40;;;;;;;;;;;;;;;;;;5075827;28;19919;-71
2022/04/08 12:36:06;;;;;;;;;;;;;;;;;;5075984;28;19970;-71
2022/04/08 12:38:32;;;;;;;;;;;;;;;;;;5071704;28;20016;-71
2022/04/08 12:40:58;;;;;;;;;;;;;;;;;;5073560;28;19969;-72
2022/04/08 12:43:24;;;;;;;;;;;;;;;;;;5074799;28;19908;-72
2022/04/08 12:45:50;;;;;;;;;;;;;;;;;;5075176;28;19908;-71
2022/04/08 12:48:16;;;;;;;;;;;;;;;;;;5074510;28;19915;-72
2022/04/08 12:50:42;;;;;;;;;;;;;;;;;;5074561;28;19916;-71
2022/04/08 12:53:08;;;;;;;;;;;;;;;;;;5075189;28;20388;-71
2022/04/08 12:55:34;;;;;;;;;;;;;;;;;;5074747;28;19908;-73
2022/04/08 12:58:00;;;;;;;;;;;;;;;;;;5073985;28;20359;-72
2022/04/08 13:00:26;;;;;;;;;;;;;;;;;;5075234;28;19970;-73
2022/04/08 13:02:53;;;;;;;;;;;;;;;;;;5074825;28;19913;-72
2022/04/08 13:05:19;;;;;;;;;;;;;;;;;;5075261;28;19965;-72
2022/04/08 13:07:45;;;;;;;;;;;;;;;;;;5075270;28;20285;-72
2022/04/08 13:10:11;;;;;;;;;;;;;;;;;;5075091;28;19935;-72
2022/04/08 13:12:37;;;;;;;;;;;;;;;;;;5074434;28;19909;-72
2022/04/08 13:15:03;;;;;;;;;;;;;;;;;;5074281;28;19962;-71
2022/04/08 13:17:29;;;;;;;;;;;;;;;;;;5075602;28;19908;-71
2022/04/08 13:19:55;;;;;;;;;;;;;;;;;;5090893;28;19927;-71
2022/04/08 13:22:21;;;;;;;;;;;;;;;;;;5095290;28;19908;-72
2022/04/08 13:24:47;;;;;;;;;;;;;;;;;;5096287;28;19908;-72
2022/04/08 13:27:13;;;;;;;;;;;;;;;;;;5077617;28;19908;-72
2022/04/08 13:29:39;;;;;;;;;;;;;;;;;;5095215;28;20397;-72
2022/04/08 13:32:05;;;;;;;;;;;;;;;;;;5095820;28;19908;-72
2022/04/08 13:34:31;;;;;;;;;;;;;;;;;;5095577;28;19962;-72
2022/04/08 13:36:57;;;;;;;;;;;;;;;;;;5095194;28;19908;-72
2022/04/08 13:39:23;;;;;;;;;;;;;;;;;;5095442;28;19916;-71
2022/04/08 13:41:50;;;;;;;;;;;;;;;;;;5094660;28;19922;-71
2022/04/08 13:44:18;;;;;;;;;;;;;;;;;;5094892;28;19908;-71
2022/04/08 13:46:44;;;;;;;;;;;;;;;;;;5095508;28;19941;-71
2022/04/08 13:49:10;;;;;;;;;;;;;;;;;;5094810;28;20322;-71
2022/04/08 13:51:36;;;;;;;;;;;;;;;;;;5094554;28;19915;-71
2022/04/08 13:54:02;;;;;;;;;;;;;;;;;;5095242;28;19912;-71
2022/04/08 13:56:28;;;;;;;;;;;;;;;;;;5095113;28;19908;-71
2022/04/08 13:58:55;;;;;;;;;;;;;;;;;;5094574;28;20003;-71
2022/04/08 14:01:21;;;;;;;;;;;;;;;;;;5095441;28;20296;-71
2022/04/08 14:03:47;;;;;;;;;;;;;;;;;;5095218;28;19974;-71
2022/04/08 14:06:13;;;;;;;;;;;;;;;;;;5076443;28;19908;-71
2022/04/08 14:08:39;;;;;;;;;;;;;;;;;;5094876;28;19935;-71
2022/04/08 14:11:05;;;;;;;;;;;;;;;;;;5094898;28;19961;-71
2022/04/08 14:13:31;;;;;;;;;;;;;;;;;;5094413;28;20339;-71
2022/04/08 14:15:57;;;;;;;;;;;;;;;;;;5076689;28;20283;-71
2022/04/08 14:18:23;;;;;;;;;;;;;;;;;;5094096;28;19924;-70
2022/04/08 14:20:49;;;;;;;;;;;;;;;;;;5095002;28;19908;-71
2022/04/08 14:23:15;;;;;;;;;;;;;;;;;;5094908;28;20387;-71
2022/04/08 14:25:41;;;;;;;;;;;;;;;;;;5094228;28;19908;-71
2022/04/08 14:28:07;;;;;;;;;;;;;;;;;;5076380;28;19915;-71
2022/04/08 14:30:34;;;;;;;;;;;;;;;;;;5094441;28;19908;-71
2022/04/08 14:33:00;;;;;;;;;;;;;;;;;;5094521;28;19994;-71
2022/04/08 14:35:26;;;;;;;;;;;;;;;;;;5094410;28;19940;-72
2022/04/08 14:37:52;;;;;;;;;;;;;;;;;;5094191;28;19912;-72
2022/04/08 14:40:18;;;;;;;;;;;;;;;;;;5093586;28;19923;-72
2022/04/08 14:42:44;;;;;;;;;;;;;;;;;;5076104;28;19908;-71
2022/04/08 14:45:10;;;;;;;;;;;;;;;;;;5094853;28;19916;-71
2022/04/08 14:47:36;;;;;;;;;;;;;;;;;;5075727;28;19908;-71
2022/04/08 14:50:02;;;;;;;;;;;;;;;;;;5094191;28;20006;-71
2022/04/08 14:52:28;;;;;;;;;;;;;;;;;;5094153;28;20344;-71
2022/04/08 14:54:55;;;;;;;;;;;;;;;;;;5075365;28;19908;-71
2022/04/08 14:57:21;;;;;;;;;;;;;;;;;;5093992;28;20284;-71
2022/04/08 14:59:47;;;;;;;;;;;;;;;;;;5093919;28;20010;-71
2022/04/08 15:02:13;;;;;;;;;;;;;;;;;;5075587;28;19909;-71
2022/04/08 15:04:39;;;;;;;;;;;;;;;;;;5093971;28;19915;-71
2022/04/08 15:07:05;;;;;;;;;;;;;;;;;;5093654;28;19915;-71
2022/04/08 15:09:31;;;;;;;;;;;;;;;;;;5093402;28;19915;-71
2022/04/08 15:11:57;;;;;;;;;;;;;;;;;;5093643;28;19916;-72
2022/04/08 15:14:23;;;;;;;;;;;;;;;;;;5093755;28;19908;-71
2022/04/08 15:16:49;;;;;;;;;;;;;;;;;;5094032;28;20014;-70
2022/04/08 15:19:15;;;;;;;;;;;;;;;;;;5093692;28;19924;-70
2022/04/08 15:21:41;;;;;;;;;;;;;;;;;;5093775;28;20076;-70
2022/04/08 15:24:07;;;;;;;;;;;;;;;;;;5093334;28;20265;-70
2022/04/08 15:26:33;;;;;;;;;;;;;;;;;;5093498;28;19915;-71
2022/04/08 15:28:59;;;;;;;;;;;;;;;;;;5093138;28;20346;-71
2022/04/08 15:31:26;;;;;;;;;;;;;;;;;;5093786;28;20312;-71
2022/04/08 15:33:57;;;;;;;;;;;;;;;;;;5093499;28;19934;-71
2022/04/08 15:36:23;;;;;;;;;;;;;;;;;;5093213;28;19962;-71
2022/04/08 15:38:49;;;;;;;;;;;;;;;;;;5093523;28;19916;-71
2022/04/08 15:41:15;;;;;;;;;;;;;;;;;;5075567;28;19915;-72
2022/04/08 15:43:41;;;;;;;;;;;;;;;;;;5075027;28;19908;-71
2022/04/08 15:46:07;;;;;;;;;;;;;;;;;;5093599;28;19908;-71
2022/04/08 15:48:34;;;;;;;;;;;;;;;;;;5075452;28;19908;-71
2022/04/08 15:51:00;;;;;;;;;;;;;;;;;;5093257;28;19914;-71
2022/04/08 15:53:26;;;;;;;;;;;;;;;;;;5093615;28;19935;-71
2022/04/08 15:55:52;;;;;;;;;;;;;;;;;;5093522;28;20308;-71
2022/04/08 15:58:18;;;;;;;;;;;;;;;;;;5093090;28;19914;-71
2022/04/08 16:00:44;;;;;;;;;;;;;;;;;;5093566;28;19935;-71
2022/04/08 16:03:10;;;;;;;;;;;;;;;;;;5093478;28;19953;-71
2022/04/08 16:05:36;;;;;;;;;;;;;;;;;;5094137;28;19931;-71
2022/04/08 16:08:02;;;;;;;;;;;;;;;;;;5097462;28;20372;-71
2022/04/08 16:10:28;;;;;;;;;;;;;;;;;;5097199;28;19908;-72
2022/04/08 16:12:54;;;;;;;;;;;;;;;;;;5096797;28;19909;-71
2022/04/08 16:15:20;;;;;;;;;;;;;;;;;;5097371;28;19987;-72
2022/04/08 16:17:46;;;;;;;;;;;;;;;;;;5097065;28;19943;-72
2022/04/08 16:20:12;;;;;;;;;;;;;;;;;;5096358;28;20020;-72
2022/04/08 16:22:38;;;;;;;;;;;;;;;;;;5096992;28;19908;-71
2022/04/08 16:25:04;;;;;;;;;;;;;;;;;;5096972;28;19961;-71
2022/04/08 16:27:30;;;;;;;;;;;;;;;;;;5078704;28;19908;-71
2022/04/08 16:29:56;;;;;;;;;;;;;;;;;;5096933;28;19953;-71
2022/04/08 16:32:22;;;;;;;;;;;;;;;;;;5096046;28;19916;-71
2022/04/08 16:34:50;;;;;;;;;;;;;;;;;;5096384;28;20316;-71
2022/04/08 16:37:16;;;;;;;;;;;;;;;;;;5096233;28;19908;-72
2022/04/08 16:39:43;;;;;;;;;;;;;;;;;;5077677;28;19943;-71
2022/04/08 16:42:09;;;;;;;;;;;;;;;;;;5095967;28;19908;-71
2022/04/08 16:44:35;;;;;;;;;;;;;;;;;;5096286;28;20022;-72
2022/04/08 16:47:01;;;;;;;;;;;;;;;;;;5095887;28;19909;-71
2022/04/08 16:49:27;;;;;;;;;;;;;;;;;;5095741;28;19962;-71
2022/04/08 16:51:53;;;;;;;;;;;;;;;;;;5077456;28;20269;-71
2022/04/08 16:54:19;;;;;;;;;;;;;;;;;;5095505;28;19912;-71
2022/04/08 16:59:15;;;;;;;;;;;;;;;;;;5131685;27;20383;-70
2022/04/08 17:01:41;;;;;;;;;;;;;;;;;;5131853;28;20278;-73
2022/04/08 17:04:07;;;;;;;;;;;;;;;;;;5132602;27;19961;-72
2022/04/08 17:06:33;;;;;;;;;;;;;;;;;;5132182;27;19908;-74
2022/04/08 17:08:59;;;;;;;;;;;;;;;;;;5130861;27;19931;-72
2022/04/08 17:13:55;;;;;;;;;;;;;;;;;;5091818;27;19916;-70
2022/04/08 17:16:21;;;;;;;;;;;;;;;;;;5090859;28;19913;-70
2022/04/08 17:18:47;;;;;;;;;;;;;;;;;;5091497;28;19908;-70
2022/04/08 17:27:14;;;;;;;;;;;;;;;;;;5091427;27;19916;-71
2022/04/08 17:31:33;;;;;;;;;;;;;;;;;;5091893;27;19916;-71
2022/04/08 17:37:21;;;;;;;;;;;;;;;;;;5090956;27;20303;-70
2022/04/08 17:41:53;;;;;;;;;;;;;;;;;;5091507;27;19912;-71
2022/04/08 17:46:22;;;;;;;;;;;;;;;;;;5091586;27;19916;-70
2022/04/08 17:51:10;;;;;;;;;;;;;;;;;;5131970;27;19922;-70
2022/04/08 17:56:47;;;;;;;;;;;;;;;;;;5070887;28;19917;-70
2022/04/08 18:04:28;;;;;;;;;;;;;;;;;;5090851;28;19912;-71
2022/04/08 18:07:36;;;;;;;;;;;;;;;;;;5091249;27;19922;-69
2022/04/08 18:10:02;;;;;;;;;;;;;;;;;;5091012;28;19913;-69
2022/04/08 18:14:08;;;;;;;;;;;;;;;;;;5091379;27;19934;-69